Time;durP1;ratioP1;P1;durP2;ratioP2;P2;SDS_P1;SDS_P2;PMS_P1;PMS_P2;Temp;Humidity;BMP_temperature;BMP_pressure;BME280_temperature;BME280_humidity;BME280_pressure;Samples;Min_cycle;Max_cycle;Signal;HPM_P1;HPM_P2
2022/04/05 00:00:52;;;;;;;0.40;0.40;;;;;;;6.61;98.16;99980.84;5195805;28;20129;-79
2022/04/05 00:03:23;;;;;;;;;;;;;;;6.63;98.30;99980.78;5196065;28;20049;-79
2022/04/05 00:05:53;;;;;;;0.38;0.38;;;;;;;6.67;98.47;99978.09;5196745;28;20569;-78
2022/04/05 00:08:27;;;;;;;1.15;1.15;;;;;;;6.67;98.45;99980.69;5199490;28;20022;-77
2022/04/05 00:10:58;;;;;;;0.50;0.50;;;;;;;6.71;98.82;99982.31;5193838;28;20509;-78
2022/04/05 00:13:28;;;;;;;0.50;0.50;;;;;;;6.71;98.88;99982.31;5200838;28;20503;-79
2022/04/05 00:15:59;;;;;;;1.02;1.02;;;;;;;6.72;98.79;99967.56;5211821;28;20037;-78
2022/04/05 00:18:30;;;;;;;0.60;0.60;;;;;;;6.72;99.09;99968.41;5182826;28;20025;-79
2022/04/05 00:21:00;;;;;;;0.30;0.30;;;;;;;6.78;98.86;99964.78;5194578;28;20041;-78
2022/04/05 00:23:31;;;;;;;0.70;0.70;;;;;;;6.80;98.73;99980.41;5183293;28;20029;-77
2022/04/05 00:26:02;;;;;;;0.43;0.43;;;;;;;6.80;98.51;99978.66;5197056;28;20045;-79
2022/04/05 00:28:33;;;;;;;0.73;0.73;;;;;;;6.81;98.90;99972.56;5211165;28;20083;-79
2022/04/05 00:31:03;;;;;;;0.60;0.60;;;;;;;6.83;99.43;99978.56;5217918;28;20113;-77
2022/04/05 00:33:34;;;;;;;0.30;0.30;;;;;;;6.86;99.06;99980.28;5198565;28;20022;-78
2022/04/05 00:36:05;;;;;;;0.30;0.30;;;;;;;6.87;98.53;99977.63;5197769;28;20033;-78
2022/04/05 00:38:35;;;;;;;0.40;0.40;;;;;;;6.87;99.23;99975.00;5219527;28;20037;-77
2022/04/05 00:41:06;;;;;;;0.52;0.52;;;;;;;6.90;98.98;99969.72;5194681;28;20038;-78
2022/04/05 00:43:36;;;;;;;0.38;0.38;;;;;;;6.91;99.27;99983.63;5229109;28;20111;-78
2022/04/05 00:46:10;;;;;;;0.50;0.50;;;;;;;6.92;99.54;99975.75;5204886;28;20036;-78
2022/04/05 00:48:49;;;;;;;0.60;0.60;;;;;;;6.97;99.53;99966.97;5183714;28;20425;-78
2022/04/05 00:51:24;;;;;;;0.40;0.40;;;;;;;6.98;99.15;99976.50;5210393;28;20049;-78
2022/04/05 00:54:03;;;;;;;0.55;0.55;;;;;;;7.01;98.89;99973.81;5180799;28;20025;-77
2022/04/05 00:56:35;;;;;;;0.43;0.43;;;;;;;7.01;99.22;99973.81;5184808;28;20034;-78
2022/04/05 00:59:07;;;;;;;0.30;0.30;;;;;;;7.03;99.42;99974.63;5195948;28;20037;-78
2022/04/05 01:01:39;;;;;;;0.95;0.95;;;;;;;7.03;99.42;99977.25;5197161;28;20030;-78
2022/04/05 01:04:11;;;;;;;0.40;0.40;;;;;;;7.07;99.38;99966.72;5217098;28;20037;-78
2022/04/05 01:06:45;;;;;;;0.70;0.70;;;;;;;7.09;99.51;99956.22;5198259;28;20060;-79
2022/04/05 01:09:17;;;;;;;0.60;0.60;;;;;;;7.10;100.00;99968.38;5210179;28;20045;-77
2022/04/05 01:11:48;;;;;;;0.50;0.50;;;;;;;7.10;100.00;99965.75;5201464;28;20520;-77
2022/04/05 01:14:18;;;;;;;0.60;0.60;;;;;;;7.14;100.00;99963.94;5200920;28;20485;-77
2022/04/05 01:16:49;;;;;;;0.60;0.60;;;;;;;7.16;100.00;99972.59;5165073;28;20052;-77
2022/04/05 01:19:19;;;;;;;0.52;0.52;;;;;;;7.18;99.82;99976.88;5194546;28;20034;-78
2022/04/05 01:21:50;;;;;;;0.30;0.30;;;;;;;7.18;100.00;99976.03;5180381;28;20029;-78
2022/04/05 01:24:20;;;;;;;0.65;0.65;;;;;;;7.21;100.00;99965.50;5201174;28;20052;-78
2022/04/05 01:26:54;;;;;;;0.57;0.57;;;;;;;7.22;100.00;99972.44;5199331;28;20029;-78
2022/04/05 01:29:25;;;;;;;;;;;;;;;7.29;100.00;99973.97;5199312;28;20053;-78
2022/04/05 01:31:59;;;;;;;0.45;0.45;;;;;;;7.26;100.00;99976.69;5196364;28;19932;-78
2022/04/05 01:34:31;;;;;;;0.45;0.45;;;;;;;7.28;100.00;99971.41;5214763;28;20086;-77
2022/04/05 01:37:05;;;;;;;0.63;0.63;;;;;;;7.34;100.00;99976.47;5211544;28;20040;-78
2022/04/05 01:39:37;;;;;;;0.43;0.43;;;;;;;7.33;100.00;99975.63;5177520;28;20082;-79
2022/04/05 01:42:13;;;;;;;0.40;0.40;;;;;;;7.35;100.00;99976.47;5175075;28;20398;-78
2022/04/05 01:44:44;;;;;;;0.60;0.60;;;;;;;7.37;100.00;99971.19;5198650;28;20254;-79
2022/04/05 01:47:16;;;;;;;1.65;1.55;;;;;;;7.40;100.00;99971.09;5213945;28;20033;-78
2022/04/05 01:49:50;;;;;;;1.20;0.90;;;;;;;7.43;100.00;99960.59;5198553;28;20048;-78
2022/04/05 01:52:21;;;;;;;0.60;0.60;;;;;;;7.45;100.00;99969.22;5216356;28;20037;-78
2022/04/05 01:54:51;;;;;;;0.47;0.47;;;;;;;7.45;100.00;99966.63;5192490;28;20248;-78
2022/04/05 01:57:22;;;;;;;0.50;0.50;;;;;;;7.46;100.00;99962.25;5199578;28;20034;-79
2022/04/05 01:59:52;;;;;;;0.70;0.70;;;;;;;7.48;100.00;99969.13;5169647;28;20488;-79
2022/04/05 02:02:23;;;;;;;1.35;1.10;;;;;;;7.49;100.00;99965.63;5178572;28;20405;-78
2022/04/05 02:04:53;;;;;;;0.30;0.30;;;;;;;7.47;100.00;99963.97;5196705;28;20029;-78
2022/04/05 02:07:24;;;;;;;0.55;0.55;;;;;;;7.53;100.00;99966.41;5197730;28;20039;-79
2022/04/05 02:09:54;;;;;;;0.77;0.77;;;;;;;7.51;100.00;99961.22;5175334;28;20073;-79
2022/04/05 02:12:25;;;;;;;0.40;0.40;;;;;;;7.53;100.00;99962.06;5195967;28;20474;-79
2022/04/05 02:14:55;;;;;;;0.77;0.77;;;;;;;7.62;100.00;99958.31;5200261;28;20438;-79
2022/04/05 02:17:26;;;;;;;0.30;0.30;;;;;;;7.61;100.00;99964.44;5199266;28;20068;-78
2022/04/05 02:19:56;;;;;;;0.80;0.70;;;;;;;7.60;100.00;99959.28;5210000;28;20057;-78
2022/04/05 02:22:27;;;;;;;0.40;0.40;;;;;;;7.61;100.00;99958.38;5210886;28;20030;-78
2022/04/05 02:24:57;;;;;;;0.57;0.57;;;;;;;7.65;100.00;99962.59;5233977;28;20457;-79
2022/04/05 02:27:28;;;;;;;0.50;0.50;;;;;;;7.70;100.00;99963.34;5194188;28;20062;-79
2022/04/05 02:29:58;;;;;;;0.38;0.38;;;;;;;7.70;100.00;99963.34;5188074;28;20099;-79
2022/04/05 02:32:29;;;;;;;0.40;0.40;;;;;;;7.70;100.00;99966.81;5182583;28;20095;-79
2022/04/05 02:34:59;;;;;;;0.50;0.50;;;;;;;7.72;100.00;99959.81;5198833;28;20064;-80
2022/04/05 02:37:30;;;;;;;0.60;0.60;;;;;;;7.75;100.00;99961.47;5194755;28;20108;-79
2022/04/05 02:40:00;;;;;;;0.40;0.40;;;;;;;7.77;100.00;99962.28;5190875;28;20483;-79
2022/04/05 02:42:32;;;;;;;1.50;1.40;;;;;;;7.76;100.00;99960.56;5177027;28;20044;-78
2022/04/05 02:45:02;;;;;;;0.40;0.40;;;;;;;7.80;100.00;99969.19;5211178;28;20043;-78
2022/04/05 02:47:33;;;;;;;0.50;0.50;;;;;;;7.82;100.00;99960.38;5198653;28;20382;-78
2022/04/05 02:50:05;;;;;;;0.57;0.57;;;;;;;7.87;100.00;99966.38;5161926;28;20049;-78
2022/04/05 02:52:36;;;;;;;0.93;0.93;;;;;;;7.86;100.00;99964.66;5184133;28;20064;-78
2022/04/05 02:55:08;;;;;;;2.40;1.40;;;;;;;7.93;100.00;99959.25;5201160;28;20038;-78
2022/04/05 02:57:43;;;;;;;0.65;0.65;;;;;;;7.85;100.00;99957.69;5197455;28;20045;-78
2022/04/05 03:00:17;;;;;;;0.50;0.50;;;;;;;7.89;100.00;99955.88;5179185;28;20117;-78
2022/04/05 03:02:48;;;;;;;0.60;0.60;;;;;;;7.94;100.00;99950.50;5176352;28;20029;-78
2022/04/05 03:05:21;;;;;;;0.85;0.80;;;;;;;7.97;100.00;99946.06;5193912;28;20037;-78
2022/04/05 03:07:54;;;;;;;1.05;1.05;;;;;;;7.98;100.00;99954.72;5195202;28;20048;-78
2022/04/05 03:10:26;;;;;;;2.72;1.15;;;;;;;7.96;100.00;99959.16;5175652;28;20049;-78
2022/04/05 03:12:57;;;;;;;0.50;0.50;;;;;;;7.99;100.00;99959.06;5198529;28;20033;-79
2022/04/05 03:15:27;;;;;;;0.47;0.47;;;;;;;8.00;100.00;99961.66;5196268;28;20114;-78
2022/04/05 03:17:58;;;;;;;0.40;0.40;;;;;;;8.01;100.00;99955.53;5196426;28;20065;-78
2022/04/05 03:20:31;;;;;;;0.50;0.50;;;;;;;8.06;100.00;99963.19;5196238;28;20049;-79
2022/04/05 03:23:02;;;;;;;0.50;0.50;;;;;;;8.03;100.00;99965.94;5193266;28;20030;-78
2022/04/05 03:25:33;;;;;;;0.95;0.95;;;;;;;8.04;100.00;99959.81;5191512;28;20095;-78
2022/04/05 03:28:04;;;;;;;0.88;0.88;;;;;;;8.06;100.00;99963.19;5195846;28;20025;-78
2022/04/05 03:30:37;;;;;;;0.40;0.40;;;;;;;8.06;100.00;99959.75;5187423;28;20037;-78
2022/04/05 03:33:10;;;;;;;0.30;0.30;;;;;;;8.07;100.00;99953.63;5217148;28;20099;-78
2022/04/05 03:35:41;;;;;;;;;;;;;;;8.08;100.00;99960.56;5180847;28;20037;-78
2022/04/05 03:38:12;;;;;;;0.47;0.47;;;;;;;8.13;100.00;99953.44;5193781;28;19909;-78
2022/04/05 03:40:46;;;;;;;0.73;0.73;;;;;;;8.13;100.00;99953.44;5195067;28;20649;-78
2022/04/05 03:43:16;;;;;;;0.50;0.50;;;;;;;8.14;100.00;99958.63;5178861;28;20090;-79
2022/04/05 03:45:47;;;;;;;13.35;1.42;;;;;;;8.14;100.00;99953.38;5196192;28;20100;-78
2022/04/05 03:48:18;;;;;;;0.98;0.98;;;;;;;8.17;100.00;99963.75;5180157;28;20040;-78
2022/04/05 03:50:48;;;;;;;0.70;0.70;;;;;;;8.17;100.00;99957.69;5202811;28;20029;-78
2022/04/05 03:53:19;;;;;;;0.65;0.65;;;;;;;8.14;100.00;99960.38;5161775;28;20046;-78
2022/04/05 03:55:49;;;;;;;1.02;1.02;;;;;;;8.15;100.00;99965.56;5202559;28;20088;-78
2022/04/05 03:58:20;;;;;;;0.77;0.77;;;;;;;8.17;100.00;99963.75;5179754;28;20026;-78
2022/04/05 04:00:51;;;;;;;1.73;1.63;;;;;;;8.21;100.00;99961.06;5194197;28;20033;-78
2022/04/05 04:03:22;;;;;;;0.88;0.88;;;;;;;8.24;100.00;99963.56;5232276;28;20085;-78
2022/04/05 04:05:55;;;;;;;0.85;0.85;;;;;;;8.22;100.00;99968.00;5207624;28;20639;-79
2022/04/05 04:08:26;;;;;;;0.90;0.90;;;;;;;8.21;100.00;99961.06;5183194;28;20049;-79
2022/04/05 04:10:57;;;;;;;0.70;0.70;;;;;;;8.25;100.00;99971.38;5189396;28;20042;-79
2022/04/05 04:13:28;;;;;;;1.70;1.40;;;;;;;8.30;100.00;99971.25;5203302;28;20556;-78
2022/04/05 04:15:59;;;;;;;0.77;0.77;;;;;;;8.30;100.00;99968.63;5210623;28;20119;-78
2022/04/05 04:18:29;;;;;;;1.33;1.15;;;;;;;8.38;100.00;99973.63;5197989;28;20033;-78
2022/04/05 04:21:00;;;;;;;0.98;0.98;;;;;;;8.31;100.00;99975.56;5195989;28;20041;-78
2022/04/05 04:23:30;;;;;;;0.68;0.68;;;;;;;8.37;100.00;99975.38;5178017;28;20025;-78
2022/04/05 04:26:01;;;;;;;0.90;0.90;;;;;;;8.45;100.00;99975.16;5196076;28;20097;-78
2022/04/05 04:28:32;;;;;;;1.88;1.77;;;;;;;8.41;100.00;99966.53;5194832;28;20029;-77
2022/04/05 04:31:02;;;;;;;2.03;1.88;;;;;;;8.39;100.00;99970.94;5195905;28;20037;-77
2022/04/05 04:33:33;;;;;;;0.75;0.75;;;;;;;8.44;100.00;99979.53;5195002;28;20025;-77
2022/04/05 04:36:07;;;;;;;0.80;0.80;;;;;;;8.44;100.00;99974.31;5196399;28;20033;-77
2022/04/05 04:38:38;;;;;;;2.28;2.17;;;;;;;8.45;100.00;99977.75;5195598;28;20084;-78
2022/04/05 04:41:09;;;;;;;2.42;2.05;;;;;;;8.46;100.00;99980.34;5189166;28;20041;-77
2022/04/05 04:43:40;;;;;;;1.55;1.45;;;;;;;8.47;100.00;99978.59;5211600;28;20042;-77
2022/04/05 04:46:11;;;;;;;1.25;1.25;;;;;;;8.44;100.00;99979.53;5178533;28;20040;-77
2022/04/05 04:48:41;;;;;;;0.85;0.85;;;;;;;8.60;99.89;99982.53;5213862;28;20032;-77
2022/04/05 04:51:12;;;;;;;1.67;1.58;;;;;;;8.52;100.00;99983.69;5195524;28;20099;-77
2022/04/05 04:53:43;;;;;;;1.85;1.05;;;;;;;8.55;100.00;99981.00;5194800;28;20401;-78
2022/04/05 04:56:16;;;;;;;1.45;1.35;;;;;;;8.59;99.81;99986.09;5195810;28;20091;-78
2022/04/05 04:58:47;;;;;;;1.55;1.48;;;;;;;8.60;99.74;99986.94;5196986;28;20028;-78
2022/04/05 05:01:17;;;;;;;2.53;1.60;;;;;;;8.63;99.17;99984.25;5196507;28;20033;-78
2022/04/05 05:03:48;;;;;;;1.67;1.42;;;;;;;8.62;99.39;99985.13;5199431;28;20028;-78
2022/04/05 05:06:18;;;;;;;1.50;1.40;;;;;;;8.59;100.00;99980.00;5197354;28;20401;-78
2022/04/05 05:08:49;;;;;;;1.30;1.30;;;;;;;8.55;100.00;99988.84;5195821;28;20659;-77
2022/04/05 05:11:20;;;;;;;0.75;0.75;;;;;;;8.55;100.00;99989.69;5217462;28;20048;-77
2022/04/05 05:13:50;;;;;;;1.30;1.30;;;;;;;8.54;100.00;99987.97;5199908;28;20029;-77
2022/04/05 05:16:23;;;;;;;1.15;0.93;;;;;;;8.63;99.85;99981.63;5177007;28;20037;-77
2022/04/05 05:21:02;;;;;;;1.38;1.25;;;;;;;8.62;100.00;99990.38;5257767;27;1233035;-86
2022/04/05 05:23:32;;;;;;;1.90;1.27;;;;;;;8.63;100.00;99994.69;5291248;27;20110;-86
2022/04/05 05:26:03;;;;;;;4.07;2.28;;;;;;;8.63;100.00;99997.31;5255958;28;20119;-87
2022/04/05 05:28:33;;;;;;;1.52;1.42;;;;;;;8.61;100.00;99999.13;5267728;28;20055;-86
2022/04/05 05:31:04;;;;;;;1.88;1.60;;;;;;;8.66;100.00;99997.19;5284174;28;20060;-84
2022/04/05 05:33:37;;;;;;;2.35;2.08;;;;;;;8.70;100.00;99995.34;5287648;28;20114;-86
2022/04/05 05:36:11;;;;;;;1.42;1.38;;;;;;;8.70;100.00;99996.22;5268810;28;20064;-86
2022/04/05 05:38:41;;;;;;;;;;;;;;;8.69;100.00;100002.34;5265566;28;20032;-86
2022/04/05 05:41:12;;;;;;;1.77;1.67;;;;;;;8.68;100.00;100000.63;5253431;28;19922;-87
2022/04/05 05:43:45;;;;;;;2.85;1.10;;;;;;;8.81;100.00;100001.09;5263724;28;20032;-86
2022/04/05 05:46:16;;;;;;;1.48;1.42;;;;;;;8.80;100.00;99997.63;5260260;28;20036;-86
2022/04/05 05:48:46;;;;;;;0.70;0.70;;;;;;;8.77;100.00;99999.47;5253043;28;20030;-86
2022/04/05 05:51:16;;;;;;;2.17;0.98;;;;;;;8.76;100.00;99998.63;5259024;28;20024;-86
2022/04/05 05:53:47;;;;;;;0.88;0.88;;;;;;;8.75;100.00;100004.75;5261296;28;20540;-85
2022/04/05 05:56:17;;;;;;;0.75;0.75;;;;;;;8.79;100.00;100006.41;5252961;28;20494;-86
2022/04/05 05:58:50;;;;;;;2.58;1.95;;;;;;;8.84;99.81;100010.63;5250053;28;20650;-86
2022/04/05 06:01:23;;;;;;;1.67;1.30;;;;;;;8.86;100.00;100009.66;5261922;28;20056;-86
2022/04/05 06:03:53;;;;;;;0.90;0.90;;;;;;;8.80;100.00;100009.84;5250473;28;20274;-86
2022/04/05 06:06:23;;;;;;;1.58;1.48;;;;;;;8.91;99.46;100014.75;5254168;28;20062;-85
2022/04/05 06:08:55;;;;;;;2.78;2.50;;;;;;;8.85;100.00;100009.72;5247672;28;20016;-86
2022/04/05 06:11:26;;;;;;;1.50;1.40;;;;;;;8.86;100.00;100014.88;5261921;28;20502;-86
2022/04/05 06:13:56;;;;;;;2.33;1.75;;;;;;;8.86;100.00;100016.66;5277956;27;20402;-86
2022/04/05 06:16:26;;;;;;;1.85;1.35;;;;;;;8.91;99.71;100013.00;5251457;28;20028;-86
2022/04/05 06:18:57;;;;;;;1.90;1.80;;;;;;;8.90;100.00;100020.88;5260529;28;20035;-86
2022/04/05 06:21:27;;;;;;;0.68;0.68;;;;;;;8.91;99.42;100020.84;5258767;28;20032;-86
2022/04/05 06:23:58;;;;;;;1.52;1.42;;;;;;;8.87;100.00;100024.44;5253471;28;20028;-86
2022/04/05 06:26:31;;;;;;;2.08;1.88;;;;;;;8.90;100.00;100027.00;5256229;28;20048;-86
2022/04/05 06:29:02;;;;;;;1.48;1.40;;;;;;;8.91;100.00;100033.06;5275565;28;20081;-86
2022/04/05 06:31:32;;;;;;;1.33;1.27;;;;;;;8.98;100.00;100024.09;5277642;28;20032;-85
2022/04/05 06:34:03;;;;;;;0.93;0.88;;;;;;;8.93;100.00;100026.03;5273030;28;20052;-86
2022/04/05 06:36:33;;;;;;;2.63;2.42;;;;;;;8.97;100.00;100040.72;5261852;28;20165;-85
2022/04/05 06:39:04;;;;;;;1.13;1.13;;;;;;;9.00;100.00;100038.00;5270141;28;20030;-85
2022/04/05 06:41:37;;;;;;;1.00;1.00;;;;;;;8.96;100.00;100037.25;5260787;28;20036;-85
2022/04/05 06:44:08;;;;;;;;;;;;;;;8.97;100.00;100038.09;5273252;27;20092;-86
2022/04/05 06:46:39;;;;;;;0.45;0.45;;;;;;;9.01;100.00;100034.50;5229736;28;20234;-86
2022/04/05 06:49:09;;;;;;;1.27;0.98;;;;;;;8.99;100.00;100036.28;5250943;28;20464;-86
2022/04/05 06:51:40;;;;;;;2.30;1.77;;;;;;;9.01;100.00;100050.19;5243488;28;20047;-86
2022/04/05 06:54:10;;;;;;;1.20;1.20;;;;;;;9.08;100.00;100050.88;5259449;28;20036;-86
2022/04/05 06:56:41;;;;;;;1.40;1.30;;;;;;;9.13;100.00;100048.94;5245638;28;20206;-86
2022/04/05 06:59:12;;;;;;;1.27;1.17;;;;;;;9.07;100.00;100043.91;5250211;28;20091;-86
2022/04/05 07:01:42;;;;;;;0.85;0.85;;;;;;;9.06;100.00;100050.88;5262127;28;20052;-85
2022/04/05 07:04:13;;;;;;;0.90;0.90;;;;;;;9.07;100.00;100055.22;5241259;28;20116;-85
2022/04/05 07:06:43;;;;;;;1.73;1.63;;;;;;;9.12;100.00;100055.97;5234235;28;20037;-85
2022/04/05 07:09:16;;;;;;;0.50;0.50;;;;;;;9.14;100.00;100055.91;5245490;28;20070;-85
2022/04/05 07:11:47;;;;;;;0.90;0.90;;;;;;;9.13;100.00;100049.78;5245468;28;20449;-85
2022/04/05 07:14:20;;;;;;;0.82;0.82;;;;;;;9.14;100.00;100054.13;5250266;28;20075;-85
2022/04/05 07:16:51;;;;;;;0.75;0.60;;;;;;;9.13;100.00;100049.78;5260103;28;20504;-85
2022/04/05 07:19:21;;;;;;;0.43;0.43;;;;;;;9.15;100.00;100055.00;5259374;28;20476;-86
2022/04/05 07:21:51;;;;;;;0.70;0.70;;;;;;;9.18;100.00;100060.13;5240670;28;20457;-87
2022/04/05 07:24:22;;;;;;;0.65;0.65;;;;;;;9.23;100.00;100049.50;5221613;28;20036;-85
2022/04/05 07:26:54;;;;;;;0.93;0.93;;;;;;;9.19;100.00;100050.53;5243983;28;20036;-85
2022/04/05 07:29:27;;;;;;;0.45;0.45;;;;;;;9.18;100.00;100054.03;5270144;28;20048;-86
2022/04/05 07:31:58;;;;;;;0.45;0.45;;;;;;;9.19;100.00;100055.75;5245898;28;20036;-85
2022/04/05 07:34:28;;;;;;;1.17;1.17;;;;;;;9.22;100.00;100051.28;5239475;28;20646;-86
2022/04/05 07:36:59;;;;;;;1.55;1.45;;;;;;;9.26;99.58;100052.88;5259609;28;20293;-87
2022/04/05 07:39:29;;;;;;;0.60;0.60;;;;;;;9.20;99.99;100057.47;5234248;28;20505;-86
2022/04/05 07:42:00;;;;;;;0.75;0.75;;;;;;;9.21;100.00;100059.19;5233749;28;20093;-86
2022/04/05 07:44:30;;;;;;;0.73;0.73;;;;;;;9.19;100.00;100058.38;5247065;28;20573;-86
2022/04/05 07:47:01;;;;;;;0.50;0.50;;;;;;;9.26;100.00;100058.09;5259960;28;20033;-87
2022/04/05 07:49:31;;;;;;;2.30;1.58;;;;;;;9.25;99.96;100066.00;5231188;28;20040;-86
2022/04/05 07:52:02;;;;;;;0.45;0.45;;;;;;;9.30;99.79;100056.25;5255174;28;20028;-86
2022/04/05 07:54:32;;;;;;;1.42;1.33;;;;;;;9.31;99.74;100059.72;5251898;28;20597;-86
2022/04/05 07:57:03;;;;;;;0.80;0.80;;;;;;;9.30;100.00;100058.84;5259246;28;20315;-85
2022/04/05 07:59:34;;;;;;;0.80;0.80;;;;;;;9.32;99.87;100057.06;5236638;28;20427;-86
2022/04/05 08:02:05;;;;;;;0.75;0.65;;;;;;;9.35;99.50;100059.59;5243283;28;20079;-86
2022/04/05 08:04:35;;;;;;;0.57;0.57;;;;;;;9.54;99.55;100059.81;5256031;28;20067;-87
2022/04/05 08:07:06;;;;;;;0.82;0.82;;;;;;;9.44;99.01;100067.16;5241569;28;20043;-86
2022/04/05 08:09:36;;;;;;;0.65;0.65;;;;;;;9.47;98.78;100067.94;5240640;28;20160;-86
2022/04/05 08:12:07;;;;;;;1.00;1.00;;;;;;;9.42;98.97;100066.34;5239146;28;20028;-86
2022/04/05 08:14:38;;;;;;;1.42;1.33;;;;;;;9.45;99.46;100070.59;5253509;28;20051;-86
2022/04/05 08:17:09;;;;;;;1.77;1.67;;;;;;;9.45;100.00;100065.38;5269358;27;20403;-87
2022/04/05 08:19:40;;;;;;;1.05;1.05;;;;;;;9.53;99.27;100063.34;5249909;28;20036;-86
2022/04/05 08:22:10;;;;;;;0.95;0.95;;;;;;;9.57;98.69;100064.09;5252272;28;20501;-86
2022/04/05 08:24:41;;;;;;;4.25;1.83;;;;;;;9.61;99.16;100061.34;5252746;28;20366;-86
2022/04/05 08:27:11;;;;;;;1.00;1.00;;;;;;;9.61;99.94;100065.72;5236770;28;20498;-86
2022/04/05 08:29:42;;;;;;;0.88;0.88;;;;;;;9.69;99.13;100068.94;5249766;28;20040;-86
2022/04/05 08:32:12;;;;;;;1.50;1.40;;;;;;;9.70;98.48;100073.28;5229149;28;20207;-86
2022/04/05 08:34:45;;;;;;;0.82;0.82;;;;;;;9.72;98.45;100074.06;5256164;28;20063;-85
2022/04/05 08:37:15;;;;;;;2.03;1.83;;;;;;;9.75;98.28;100073.13;5239140;28;20025;-86
2022/04/05 08:39:46;;;;;;;3.72;2.17;;;;;;;9.79;97.84;100076.50;5244558;28;20556;-87
2022/04/05 08:42:17;;;;;;;0.70;0.70;;;;;;;9.87;97.42;100083.16;5238056;28;20054;-86
2022/04/05 08:44:49;;;;;;;1.27;1.27;;;;;;;9.80;97.99;100086.91;5238420;28;20741;-86
2022/04/05 08:47:21;;;;;;;5.45;2.30;;;;;;;9.90;97.17;100087.44;5219179;28;20032;-84
2022/04/05 08:49:52;;;;;;;2.17;2.05;;;;;;;9.85;96.99;100090.22;5227126;28;20040;-86
2022/04/05 08:52:23;;;;;;;0.85;0.85;;;;;;;9.86;97.27;100093.72;5224417;28;20036;-85
2022/04/05 08:54:54;;;;;;;1.15;1.15;;;;;;;9.87;97.08;100093.66;5241968;28;20506;-86
2022/04/05 08:57:25;;;;;;;1.50;1.42;;;;;;;9.84;97.42;100092.91;5262957;28;20032;-86
2022/04/05 08:59:55;;;;;;;1.73;1.63;;;;;;;9.85;97.42;100092.00;5256911;28;20376;-86
2022/04/05 09:02:27;;;;;;;0.75;0.75;;;;;;;9.83;97.66;100099.91;5254523;28;20048;-84
2022/04/05 09:04:57;;;;;;;1.45;1.35;;;;;;;9.90;97.06;100103.16;5256402;28;20029;-86
2022/04/05 09:07:33;;;;;;;0.88;0.88;;;;;;;9.87;97.51;100103.28;5261596;28;20040;-86
2022/04/05 09:10:06;;;;;;;0.73;0.73;;;;;;;9.89;97.13;100102.31;5222001;28;20078;-86
2022/04/05 09:12:48;;;;;;;1.58;1.48;;;;;;;9.86;97.99;100093.72;5225005;28;20048;-86
2022/04/05 09:15:18;;;;;;;0.88;0.88;;;;;;;9.93;97.15;100095.22;5216946;28;20163;-86
2022/04/05 09:17:50;;;;;;;1.15;1.15;;;;;;;9.96;97.66;100095.09;5261641;28;20126;-85
2022/04/05 09:20:24;;;;;;;1.67;1.58;;;;;;;10.01;97.21;100095.81;5245490;28;20583;-85
2022/04/05 09:22:55;;;;;;;1.02;1.02;;;;;;;10.07;97.21;100097.34;5231983;28;20076;-86
2022/04/05 09:25:26;;;;;;;0.82;0.82;;;;;;;10.15;96.78;100107.56;5240526;28;20123;-86
2022/04/05 09:27:58;;;;;;;1.73;1.63;;;;;;;10.25;96.39;100098.47;5244288;28;20124;-86
2022/04/05 09:30:31;;;;;;;0.68;0.68;;;;;;;10.30;95.68;100100.94;5238764;28;20094;-85
2022/04/05 09:33:04;;;;;;;0.77;0.77;;;;;;;10.20;95.65;100106.50;5247392;28;20038;-86
2022/04/05 09:35:43;;;;;;;1.30;1.10;;;;;;;10.28;94.71;100113.22;5239416;28;20040;-85
2022/04/05 09:38:16;;;;;;;1.25;1.25;;;;;;;10.18;95.44;100108.31;5246004;28;20024;-85
2022/04/05 09:40:52;;;;;;;0.63;0.63;;;;;;;10.22;95.18;100103.81;5237173;28;20332;-85
2022/04/05 09:43:22;;;;;;;0.93;0.93;;;;;;;10.16;95.18;100106.66;5244416;28;20092;-88
2022/04/05 09:45:58;;;;;;;1.15;1.08;;;;;;;10.22;95.27;100112.53;5230276;28;20118;-85
2022/04/05 09:48:36;;;;;;;1.40;1.30;;;;;;;10.33;94.94;100114.78;5243862;28;20525;-85
2022/04/05 09:51:09;;;;;;;0.80;0.80;;;;;;;10.41;94.83;100108.44;5237918;28;20578;-85
2022/04/05 09:53:39;;;;;;;0.93;0.90;;;;;;;10.43;95.05;100114.47;5216973;28;20024;-85
2022/04/05 09:56:15;;;;;;;0.77;0.77;;;;;;;10.51;94.33;100113.28;5244064;28;20063;-85
2022/04/05 09:58:50;;;;;;;1.95;1.85;;;;;;;10.52;94.13;100107.13;5264715;28;20543;-85
2022/04/05 10:01:23;;;;;;;1.35;1.30;;;;;;;10.53;94.38;100108.00;5231852;28;20040;-85
2022/04/05 10:04:08;;;;;;;1.10;1.05;;;;;;;10.59;94.29;100102.53;5248182;28;20470;-85
2022/04/05 10:06:43;;;;;;;2.35;1.38;;;;;;;10.60;94.04;100104.22;5233932;28;20112;-85
2022/04/05 10:09:15;;;;;;;1.10;1.02;;;;;;;10.66;93.22;100111.03;5256974;28;20036;-85
2022/04/05 10:11:46;;;;;;;0.60;0.60;;;;;;;10.76;92.34;100108.91;5251038;28;20398;-85
2022/04/05 10:14:25;;;;;;;1.30;1.20;;;;;;;10.76;92.45;100103.66;5261098;28;20328;-86
2022/04/05 10:16:56;;;;;;;0.70;0.70;;;;;;;10.79;91.59;100114.00;5244152;28;20095;-85
2022/04/05 10:19:28;;;;;;;0.73;0.73;;;;;;;10.87;91.56;100117.19;5243907;28;20367;-85
2022/04/05 10:21:58;;;;;;;1.23;1.17;;;;;;;10.83;91.89;100105.97;5256372;28;20251;-86
2022/04/05 10:24:30;;;;;;;0.47;0.47;;;;;;;10.89;91.69;100110.13;5264028;28;20043;-85
2022/04/05 10:27:04;;;;;;;0.80;0.80;;;;;;;10.89;91.06;100115.38;5253880;28;20086;-86
2022/04/05 10:29:35;;;;;;;0.73;0.73;;;;;;;10.95;90.74;100115.16;5257197;28;20062;-86
2022/04/05 10:32:15;;;;;;;0.60;0.60;;;;;;;11.05;90.33;100114.78;5230433;28;20060;-86
2022/04/05 10:34:53;;;;;;;0.88;0.88;;;;;;;11.01;90.84;100112.31;5247620;28;20413;-86
2022/04/05 10:37:33;;;;;;;0.77;0.77;;;;;;;11.09;90.39;100113.78;5239916;28;20059;-85
2022/04/05 10:40:04;;;;;;;0.98;0.98;;;;;;;11.16;89.95;100112.63;5219915;28;20055;-85
2022/04/05 10:42:38;;;;;;;0.70;0.70;;;;;;;11.18;89.75;100121.28;5243807;28;20704;-86
2022/04/05 10:45:20;;;;;;;0.68;0.68;;;;;;;11.36;89.29;100113.59;5256613;28;20104;-86
2022/04/05 10:48:10;;;;;;;2.53;2.33;;;;;;;11.38;89.49;100112.63;5261834;28;20207;-86
2022/04/05 10:51:01;;;;;;;0.90;0.90;;;;;;;11.40;89.27;100121.31;5255329;28;20040;-86
2022/04/05 10:54:17;;;;;;;1.17;1.15;;;;;;;11.47;88.62;100114.88;5243967;28;20163;-86
2022/04/05 10:56:33;;;;;;;0.57;0.57;;;;;;;11.50;88.55;100112.13;5255217;28;20123;-86
2022/04/05 10:59:05;;;;;;;0.55;0.55;;;;;;;11.43;88.48;100121.16;5220481;28;20124;-86
2022/04/05 11:01:43;;;;;;;1.60;1.00;;;;;;;11.46;87.52;100115.78;5265552;28;20040;-85
2022/04/05 11:04:14;;;;;;;1.35;1.25;;;;;;;11.39;87.42;100109.09;5279758;28;20088;-86
2022/04/05 11:07:05;;;;;;;1.02;1.02;;;;;;;11.40;87.95;100109.94;5259359;28;20059;-86
2022/04/05 11:09:54;;;;;;;0.82;0.82;;;;;;;11.42;88.76;100119.44;5277742;28;20086;-86
2022/04/05 11:12:28;;;;;;;2.20;1.65;;;;;;;11.35;89.43;100112.72;5279257;28;20029;-86
2022/04/05 11:15:08;;;;;;;1.30;0.60;;;;;;;11.38;89.93;100120.50;5266324;22;20090;-81
2022/04/05 11:17:41;;;;;;;0.68;0.68;;;;;;;11.38;89.77;100117.00;5207297;28;20076;-82
2022/04/05 11:22:44;;;;;;;0.90;0.90;;;;;;;11.40;90.39;100117.81;5271964;28;20281;-84
2022/04/05 11:25:27;;;;;;;1.42;1.33;;;;;;;11.46;89.38;100118.44;5237504;28;20393;-82
2022/04/05 11:28:13;;;;;;;2.10;1.95;;;;;;;11.42;89.52;100108.09;5254962;28;20031;-83
2022/04/05 11:30:45;;;;;;;1.15;1.05;;;;;;;11.39;89.48;100113.47;5222973;28;20109;-83
2022/04/05 11:33:31;;;;;;;0.60;0.60;;;;;;;11.34;89.59;100117.16;5235510;28;20036;-80
2022/04/05 11:36:06;;;;;;;0.40;0.40;;;;;;;11.34;90.09;100111.91;5204974;28;20044;-80
2022/04/05 11:38:46;;;;;;;0.70;0.70;;;;;;;11.33;89.86;100110.19;5219515;28;20094;-80
2022/04/05 11:41:28;;;;;;;1.90;1.30;;;;;;;11.21;89.70;100110.66;5234307;28;20028;-81
2022/04/05 11:44:06;;;;;;;0.80;0.80;;;;;;;11.18;90.29;100110.78;5221740;28;20242;-84
2022/04/05 11:46:37;;;;;;;0.68;0.68;;;;;;;11.13;90.23;100104.84;5232541;28;20040;-84
2022/04/05 11:49:16;;;;;;;0.70;0.70;;;;;;;11.12;90.44;100114.50;5201440;28;20550;-82
2022/04/05 11:51:48;;;;;;;0.70;0.70;;;;;;;11.15;90.63;100110.91;5220857;28;20385;-82
2022/04/05 11:54:24;;;;;;;1.20;1.10;;;;;;;11.18;89.93;100105.53;5228839;28;20114;-83
2022/04/05 11:57:03;;;;;;;0.88;0.88;;;;;;;11.21;90.40;100108.03;5208550;28;20392;-81
2022/04/05 11:59:34;;;;;;;3.00;2.33;;;;;;;11.25;89.70;100103.50;5214936;28;20516;-81